createdAt,value
2023-03-18T00:00:31.259Z,5.83
2023-03-18T00:03:04.560Z,5.80
2023-03-18T00:05:37.365Z,5.75
2023-03-18T00:08:10.974Z,5.71
2023-03-18T00:10:44.302Z,5.66
2023-03-18T00:13:18.810Z,5.64
2023-03-18T00:15:53.901Z,5.63
2023-03-18T00:18:27.613Z,5.64
2023-03-18T00:21:01.360Z,5.64
2023-03-18T00:23:36.526Z,5.60
2023-03-18T00:26:10.267Z,5.57
2023-03-18T00:28:43.967Z,5.55
2023-03-18T00:31:16.952Z,5.57
2023-03-18T00:33:50.725Z,5.60
2023-03-18T00:36:24.988Z,5.62
2023-03-18T00:38:59.885Z,5.59
2023-03-18T00:41:36.167Z,5.56
2023-03-18T00:44:09.744Z,5.55
2023-03-18T00:46:42.699Z,5.55
2023-03-18T00:49:17.985Z,5.51
2023-03-18T00:51:52.364Z,5.50
2023-03-18T00:54:25.981Z,5.48
2023-03-18T00:56:58.951Z,5.50
2023-03-18T00:59:33.489Z,5.50
2023-03-18T01:02:06.598Z,5.49
2023-03-18T01:04:39.810Z,5.45
2023-03-18T01:07:13.779Z,5.44
2023-03-18T01:09:46.983Z,5.46
2023-03-18T01:12:19.816Z,5.50
2023-03-18T01:14:53.066Z,5.52
2023-03-18T01:17:27.892Z,5.49
2023-03-18T01:20:01.136Z,5.44
2023-03-18T01:22:34.934Z,5.42
2023-03-18T01:25:10.140Z,5.42
2023-03-18T01:27:43.507Z,5.40
2023-03-18T01:30:17.889Z,5.34
2023-03-18T01:32:50.866Z,5.32
2023-03-18T01:35:24.153Z,5.30
2023-03-18T01:37:58.268Z,5.27
2023-03-18T01:40:33.709Z,5.27
2023-03-18T01:43:25.118Z,5.28
2023-03-18T01:46:01.496Z,5.28
2023-03-18T01:48:37.884Z,5.28
2023-03-18T01:51:13.950Z,5.28
2023-03-18T01:53:50.021Z,5.27
2023-03-18T01:56:23.448Z,5.24
2023-03-18T01:58:58.671Z,5.23
2023-03-18T02:01:46.950Z,5.22
2023-03-18T02:04:21.601Z,5.23
2023-03-18T02:06:56.252Z,5.21
2023-03-18T02:09:29.977Z,5.20
2023-03-18T02:12:04.762Z,5.18
2023-03-18T02:14:38.503Z,5.14
2023-03-18T02:17:16.996Z,5.12
2023-03-18T02:20:28.013Z,5.10
2023-03-18T02:23:31.723Z,5.07
2023-03-18T02:26:22.195Z,5.07
2023-03-18T02:28:58.434Z,5.11
2023-03-18T02:31:34.688Z,5.16
2023-03-18T02:34:09.334Z,5.18
2023-03-18T02:36:43.289Z,5.21
2023-03-18T02:39:18.239Z,5.21
2023-03-18T02:41:51.686Z,5.18
2023-03-18T02:44:25.257Z,5.16
2023-03-18T02:47:22.191Z,5.15
2023-03-18T02:49:55.848Z,5.11
2023-03-18T02:52:28.816Z,5.10
2023-03-18T02:55:02.344Z,5.07
2023-03-18T02:57:35.173Z,5.06
2023-03-18T03:00:11.376Z,5.04
2023-03-18T03:02:45.677Z,4.98
2023-03-18T03:05:21.047Z,4.93
2023-03-18T03:07:55.120Z,4.95
2023-03-18T03:10:28.360Z,4.96
2023-03-18T03:13:01.991Z,4.95
2023-03-18T03:15:37.297Z,4.93
2023-03-18T03:18:10.682Z,4.93
2023-03-18T03:20:45.201Z,4.95
2023-03-18T03:23:18.629Z,4.94
2023-03-18T03:25:53.246Z,4.96
2023-03-18T03:28:27.579Z,4.99
2023-03-18T03:31:01.442Z,5.00
2023-03-18T03:33:35.510Z,5.00
2023-03-18T03:36:10.878Z,5.01
2023-03-18T03:38:44.516Z,5.01
2023-03-18T03:41:17.875Z,5.00
2023-03-18T03:43:52.376Z,4.96
2023-03-18T03:46:25.489Z,4.96
2023-03-18T03:48:58.276Z,4.96
2023-03-18T03:51:31.977Z,4.91
2023-03-18T03:54:05.588Z,4.89
2023-03-18T03:56:39.097Z,4.89
2023-03-18T03:59:11.905Z,4.89
2023-03-18T04:01:52.466Z,4.85
2023-03-18T04:04:25.518Z,4.84
2023-03-18T04:06:58.910Z,4.87
2023-03-18T04:09:34.204Z,4.87
2023-03-18T04:12:09.133Z,4.90
2023-03-18T04:14:42.054Z,4.92
2023-03-18T04:17:15.548Z,4.93
2023-03-18T04:19:49.938Z,4.93
2023-03-18T04:22:25.437Z,4.92
2023-03-18T04:24:59.002Z,4.91
2023-03-18T04:27:32.669Z,4.92
2023-03-18T04:30:10.935Z,4.94
2023-03-18T04:32:46.167Z,4.98
2023-03-18T04:35:21.423Z,5.02
2023-03-18T04:37:55.199Z,5.07
2023-03-18T04:40:29.022Z,5.08
2023-03-18T04:43:02.724Z,5.10
2023-03-18T04:45:35.575Z,5.10
2023-03-18T04:48:08.813Z,5.11
2023-03-18T04:50:44.997Z,5.13
2023-03-18T04:53:20.136Z,5.12
2023-03-18T04:55:53.399Z,5.06
2023-03-18T04:58:27.957Z,5.04
2023-03-18T05:01:14.942Z,5.00
2023-03-18T05:03:48.010Z,4.96
2023-03-18T05:06:28.449Z,4.90
2023-03-18T05:09:05.067Z,4.85
2023-03-18T05:11:39.806Z,4.82
2023-03-18T05:14:18.391Z,4.78
2023-03-18T05:16:52.244Z,4.79
2023-03-18T05:19:26.063Z,4.80
2023-03-18T05:22:00.537Z,4.84
2023-03-18T05:24:34.121Z,4.88
2023-03-18T05:27:11.044Z,4.90
2023-03-18T05:29:46.005Z,4.88
2023-03-18T05:32:21.339Z,4.86
2023-03-18T05:34:56.050Z,4.86
2023-03-18T05:37:29.357Z,4.81
2023-03-18T05:40:05.223Z,4.81
2023-03-18T05:42:54.876Z,4.81
2023-03-18T05:45:16.658Z,4.81
2023-03-18T05:47:51.987Z,4.80
2023-03-18T05:50:44.367Z,4.80
2023-03-18T05:53:19.874Z,4.78
2023-03-18T05:55:54.184Z,4.77
2023-03-18T05:58:30.054Z,4.76
2023-03-18T06:01:05.182Z,4.76
2023-03-18T06:03:38.856Z,4.75
2023-03-18T06:06:12.820Z,4.70
2023-03-18T06:08:46.756Z,4.67
2023-03-18T06:11:19.531Z,4.65
2023-03-18T06:13:54.521Z,4.65
2023-03-18T06:16:29.059Z,4.66
2023-03-18T06:19:03.015Z,4.70
2023-03-18T06:21:37.449Z,4.77
2023-03-18T06:24:11.587Z,4.83
2023-03-18T06:26:44.772Z,4.88
2023-03-18T06:29:18.716Z,4.94
2023-03-18T06:31:51.486Z,4.97
2023-03-18T06:34:27.648Z,5.00
2023-03-18T06:37:01.386Z,5.00
2023-03-18T06:39:35.183Z,5.00
2023-03-18T06:42:11.097Z,4.98
2023-03-18T06:44:57.945Z,4.96
2023-03-18T06:47:33.218Z,4.92
2023-03-18T06:50:06.413Z,4.85
2023-03-18T06:52:41.707Z,4.82
2023-03-18T06:55:16.931Z,4.81
2023-03-18T06:57:50.423Z,4.84
2023-03-18T07:00:26.279Z,4.85
2023-03-18T07:03:00.057Z,4.89
2023-03-18T07:05:34.936Z,4.94
2023-03-18T07:08:09.547Z,4.98
2023-03-18T07:10:42.796Z,4.99
2023-03-18T07:13:17.906Z,4.96
2023-03-18T07:15:51.232Z,4.94
2023-03-18T07:18:24.738Z,4.92
2023-03-18T07:20:58.174Z,4.92
2023-03-18T07:23:32.716Z,4.94
2023-03-18T07:26:05.611Z,4.93
2023-03-18T07:28:38.920Z,4.92
2023-03-18T07:31:12.033Z,4.95
2023-03-18T07:33:46.714Z,4.94
2023-03-18T07:36:21.097Z,4.93
2023-03-18T07:38:53.748Z,4.88
2023-03-18T07:41:27.006Z,4.87
2023-03-18T07:43:59.845Z,4.88
2023-03-18T07:46:33.573Z,4.85
2023-03-18T07:49:06.531Z,4.85
2023-03-18T07:51:39.918Z,4.87
2023-03-18T07:54:12.384Z,4.92
2023-03-18T07:56:45.378Z,4.96
2023-03-18T07:59:19.661Z,5.04
2023-03-18T08:01:52.813Z,5.04
2023-03-18T08:04:26.424Z,5.10
2023-03-18T08:07:00.476Z,5.16
2023-03-18T08:09:33.595Z,5.21
2023-03-18T08:12:08.747Z,5.24
2023-03-18T08:14:43.429Z,5.26
2023-03-18T08:17:16.604Z,5.30
2023-03-18T08:19:49.482Z,5.30
2023-03-18T08:22:22.430Z,5.32
2023-03-18T08:24:55.565Z,5.39
2023-03-18T08:27:29.242Z,5.44
2023-03-18T08:30:03.789Z,5.47
2023-03-18T08:32:38.625Z,5.51
2023-03-18T08:35:13.505Z,5.54
2023-03-18T08:37:47.179Z,5.63
2023-03-18T08:40:20.981Z,5.69
2023-03-18T08:42:54.291Z,5.70
2023-03-18T08:45:28.867Z,5.71
2023-03-18T08:48:01.828Z,5.64
2023-03-18T08:50:37.022Z,5.66
2023-03-18T08:53:09.790Z,5.69
2023-03-18T08:55:42.665Z,5.75
2023-03-18T08:58:16.489Z,5.75
2023-03-18T09:00:50.749Z,5.75
2023-03-18T09:03:25.293Z,5.80
2023-03-18T09:05:58.275Z,5.84
2023-03-18T09:08:31.557Z,5.90
2023-03-18T09:11:04.716Z,5.93
2023-03-18T09:13:39.244Z,5.96
2023-03-18T09:16:12.800Z,5.98
2023-03-18T09:18:48.349Z,6.02
2023-03-18T09:21:20.703Z,6.02
2023-03-18T09:23:54.539Z,6.04
2023-03-18T09:26:27.752Z,6.07
2023-03-18T09:29:00.765Z,6.11
2023-03-18T09:31:33.546Z,6.18
2023-03-18T09:34:06.886Z,6.25
2023-03-18T09:36:44.057Z,6.34
2023-03-18T09:39:17.828Z,6.41
2023-03-18T09:42:21.687Z,6.49
2023-03-18T09:45:03.791Z,6.52
2023-03-18T09:48:16.940Z,6.54
2023-03-18T09:51:06.348Z,6.52
2023-03-18T09:53:47.420Z,6.51
2023-03-18T09:56:30.536Z,6.55
2023-03-18T09:59:22.994Z,6.60
2023-03-18T10:01:58.358Z,6.60
2023-03-18T10:04:39.401Z,6.59
2023-03-18T10:07:25.982Z,6.64
2023-03-18T10:10:06.281Z,6.67
2023-03-18T10:12:45.899Z,6.70
2023-03-18T10:15:29.241Z,6.77
2023-03-18T10:18:33.824Z,6.80
2023-03-18T10:21:19.988Z,6.83
2023-03-18T10:24:24.870Z,6.82
2023-03-18T10:27:22.532Z,6.80
2023-03-18T10:30:19.570Z,6.76
2023-03-18T10:33:30.219Z,6.74
2023-03-18T10:36:23.872Z,6.74
2023-03-18T10:38:57.641Z,6.79
2023-03-18T10:41:37.149Z,6.81
2023-03-18T10:44:29.738Z,6.83
2023-03-18T10:47:13.761Z,6.91
2023-03-18T10:49:54.549Z,7.03
2023-03-18T10:52:40.552Z,7.09
2023-03-18T10:55:23.637Z,7.12
2023-03-18T10:57:56.485Z,7.14
2023-03-18T11:00:36.112Z,7.15
2023-03-18T11:03:12.434Z,7.20
2023-03-18T11:05:45.808Z,7.26
2023-03-18T11:08:38.542Z,7.28
2023-03-18T11:11:34.929Z,7.32
2023-03-18T11:14:16.834Z,7.35
2023-03-18T11:17:04.884Z,7.37
2023-03-18T11:19:46.076Z,7.39
2023-03-18T11:22:26.169Z,7.39
2023-03-18T11:25:25.810Z,7.39
2023-03-18T11:28:08.953Z,7.39
2023-03-18T11:30:56.637Z,7.38
2023-03-18T11:33:35.354Z,7.41
2023-03-18T11:36:10.601Z,7.36
2023-03-18T11:38:43.431Z,7.37
2023-03-18T11:41:26.226Z,7.40
2023-03-18T11:44:08.060Z,7.39
2023-03-18T11:46:58.928Z,7.34
2023-03-18T11:49:32.875Z,7.32
2023-03-18T11:52:17.828Z,7.29
2023-03-18T11:55:32.084Z,7.23
2023-03-18T11:58:40.711Z,7.22
2023-03-18T12:01:22.161Z,7.20
2023-03-18T12:04:16.162Z,7.21
2023-03-18T12:07:00.500Z,7.25
2023-03-18T12:10:03.447Z,7.30
2023-03-18T12:12:53.881Z,7.31
2023-03-18T12:15:49.785Z,7.33
2023-03-18T12:18:59.084Z,7.35
2023-03-18T12:21:57.799Z,7.33
2023-03-18T12:25:00.836Z,7.28
2023-03-18T12:27:48.409Z,7.28
2023-03-18T12:30:56.212Z,7.26
2023-03-18T12:33:51.866Z,7.29
2023-03-18T12:36:38.111Z,7.32
2023-03-18T12:39:31.418Z,7.33
2023-03-18T12:42:32.952Z,7.32
2023-03-18T12:45:13.093Z,7.30
2023-03-18T12:48:07.549Z,7.33
2023-03-18T12:50:44.408Z,7.32
2023-03-18T12:53:39.456Z,7.29
2023-03-18T12:56:20.253Z,7.29
2023-03-18T12:58:57.921Z,7.29
2023-03-18T13:01:50.122Z,7.29
2023-03-18T13:04:27.267Z,7.32
2023-03-18T13:07:12.315Z,7.39
2023-03-18T13:09:57.887Z,7.47
2023-03-18T13:12:36.357Z,7.53
2023-03-18T13:15:35.935Z,7.55
2023-03-18T13:18:33.880Z,7.55
2023-03-18T13:21:08.367Z,7.50
2023-03-18T13:24:11.092Z,7.42
2023-03-18T13:26:51.249Z,7.37
2023-03-18T13:29:54.205Z,7.28
2023-03-18T13:32:49.435Z,7.22
2023-03-18T13:35:55.185Z,7.17
2023-03-18T13:38:54.240Z,7.14
2023-03-18T13:42:04.620Z,7.08
2023-03-18T13:44:46.414Z,7.04
2023-03-18T13:47:22.441Z,7.03
2023-03-18T13:50:23.941Z,7.05
2023-03-18T13:52:58.618Z,7.13
2023-03-18T13:55:44.006Z,7.16
2023-03-18T13:58:24.494Z,7.14
2023-03-18T14:01:17.716Z,7.12
2023-03-18T14:03:55.148Z,7.11
2023-03-18T14:06:57.218Z,7.08
2023-03-18T14:09:36.373Z,7.05
2023-03-18T14:12:31.035Z,6.99
2023-03-18T14:15:26.814Z,6.92
2023-03-18T14:18:00.467Z,6.84
2023-03-18T14:20:43.905Z,6.76
2023-03-18T14:23:39.473Z,6.69
2023-03-18T14:26:28.389Z,6.66
2023-03-18T14:29:15.649Z,6.62
2023-03-18T14:32:02.935Z,6.56
2023-03-18T14:34:38.500Z,6.48
2023-03-18T14:37:29.698Z,6.41
2023-03-18T14:40:18.957Z,6.33
2023-03-18T14:43:01.962Z,6.26
2023-03-18T14:45:38.628Z,6.21
2023-03-18T14:48:22.895Z,6.16
2023-03-18T14:51:03.403Z,6.14
2023-03-18T14:53:59.295Z,6.06
2023-03-18T14:56:38.996Z,6.01
2023-03-18T14:59:17.717Z,5.93
2023-03-18T15:01:52.771Z,5.84
2023-03-18T15:04:28.319Z,5.75
2023-03-18T15:07:05.313Z,5.72
2023-03-18T15:09:38.791Z,5.66
2023-03-18T15:12:27.171Z,5.61
2023-03-18T15:15:01.826Z,5.59
2023-03-18T15:17:35.111Z,5.59
2023-03-18T15:20:13.001Z,5.54
2023-03-18T15:22:46.542Z,5.46
2023-03-18T15:25:21.604Z,5.39
2023-03-18T15:27:56.499Z,5.33
2023-03-18T15:30:34.135Z,5.29
2023-03-18T15:33:12.068Z,5.29
2023-03-18T15:35:47.921Z,5.27
2023-03-18T15:38:21.522Z,5.24
2023-03-18T15:41:01.562Z,5.21
2023-03-18T15:43:43.469Z,5.19
2023-03-18T15:46:31.778Z,5.15
2023-03-18T15:49:06.377Z,5.11
2023-03-18T15:51:48.260Z,5.05
2023-03-18T15:54:31.236Z,5.02
2023-03-18T15:57:15.002Z,5.03
2023-03-18T15:59:48.352Z,5.01
2023-03-18T16:02:22.900Z,4.97
2023-03-18T16:05:21.333Z,4.94
2023-03-18T16:07:54.989Z,4.88
2023-03-18T16:10:28.102Z,4.87
2023-03-18T16:13:04.665Z,4.87
2023-03-18T16:15:38.147Z,4.87
2023-03-18T16:18:13.137Z,4.85
2023-03-18T16:20:46.806Z,4.83
2023-03-18T16:23:20.616Z,4.80
2023-03-18T16:25:56.455Z,4.78
2023-03-18T16:28:30.107Z,4.76
2023-03-18T16:31:02.809Z,4.75
2023-03-18T16:33:36.985Z,4.75
2023-03-18T16:36:12.312Z,4.72
2023-03-18T16:38:48.060Z,4.71
2023-03-18T16:41:21.642Z,4.68
2023-03-18T16:43:55.933Z,4.68
2023-03-18T16:46:28.959Z,4.63
2023-03-18T16:49:02.501Z,4.60
2023-03-18T16:51:35.441Z,4.58
2023-03-18T16:54:21.333Z,4.57
2023-03-18T16:56:57.819Z,4.54
2023-03-18T16:59:36.534Z,4.50
2023-03-18T17:02:16.136Z,4.51
2023-03-18T17:04:49.200Z,4.50
2023-03-18T17:07:22.688Z,4.51
2023-03-18T17:09:55.759Z,4.49
2023-03-18T17:12:29.611Z,4.44
2023-03-18T17:15:03.243Z,4.37
2023-03-18T17:17:37.286Z,4.32
2023-03-18T17:20:22.656Z,4.31
2023-03-18T17:22:55.892Z,4.30
2023-03-18T17:25:31.158Z,4.30
2023-03-18T17:28:07.188Z,4.32
2023-03-18T17:30:41.977Z,4.34
2023-03-18T17:33:25.649Z,4.38
2023-03-18T17:35:58.983Z,4.40
2023-03-18T17:38:32.344Z,4.42
2023-03-18T17:41:08.879Z,4.41
2023-03-18T17:43:42.366Z,4.40
2023-03-18T17:46:15.874Z,4.32
2023-03-18T17:48:48.783Z,4.29
2023-03-18T17:51:24.933Z,4.25
2023-03-18T17:54:03.680Z,4.24
2023-03-18T17:56:38.200Z,4.25
2023-03-18T17:59:18.080Z,4.27
2023-03-18T18:01:52.783Z,4.28
2023-03-18T18:04:27.658Z,4.28
2023-03-18T18:07:00.452Z,4.27
2023-03-18T18:09:33.365Z,4.25
2023-03-18T18:12:07.089Z,4.22
2023-03-18T18:14:41.580Z,4.21
2023-03-18T18:17:16.433Z,4.22
2023-03-18T18:19:50.440Z,4.18
2023-03-18T18:22:28.452Z,4.15
2023-03-18T18:25:01.861Z,4.12
2023-03-18T18:27:35.402Z,4.09
2023-03-18T18:30:10.983Z,4.09
2023-03-18T18:32:45.119Z,4.09
2023-03-18T18:35:21.565Z,4.09
2023-03-18T18:37:55.203Z,4.11
2023-03-18T18:40:28.110Z,4.13
2023-03-18T18:43:00.974Z,4.13
2023-03-18T18:45:35.022Z,4.12
2023-03-18T18:48:17.514Z,4.12
2023-03-18T18:50:51.682Z,4.12
2023-03-18T18:53:31.280Z,4.09
2023-03-18T18:56:19.042Z,4.07
2023-03-18T18:58:53.450Z,4.08
2023-03-18T19:01:26.987Z,4.08
2023-03-18T19:04:00.098Z,4.10
2023-03-18T19:06:34.117Z,4.13
2023-03-18T19:09:14.420Z,4.15
2023-03-18T19:11:48.592Z,4.14
2023-03-18T19:14:24.810Z,4.18
2023-03-18T19:16:59.952Z,4.16
2023-03-18T19:19:35.806Z,4.14
2023-03-18T19:22:18.138Z,4.12
2023-03-18T19:24:51.483Z,4.06
2023-03-18T19:27:31.202Z,4.07
2023-03-18T19:30:10.972Z,4.08
2023-03-18T19:32:44.813Z,4.08
2023-03-18T19:35:19.419Z,4.06
2023-03-18T19:37:52.651Z,4.05
2023-03-18T19:40:34.423Z,4.04
2023-03-18T19:43:18.512Z,4.04
2023-03-18T19:45:52.079Z,4.01
2023-03-18T19:48:27.846Z,3.98
2023-03-18T19:51:00.654Z,3.96
2023-03-18T19:53:36.447Z,3.96
2023-03-18T19:56:31.508Z,3.93
2023-03-18T19:59:06.267Z,3.88
2023-03-18T20:01:40.956Z,3.82
2023-03-18T20:04:15.785Z,3.80
2023-03-18T20:06:50.936Z,3.79
2023-03-18T20:09:25.689Z,3.79
2023-03-18T20:12:04.242Z,3.80
2023-03-18T20:14:39.351Z,3.83
2023-03-18T20:17:38.195Z,3.81
2023-03-18T20:20:27.791Z,3.76
2023-03-18T20:23:10.463Z,3.73
2023-03-18T20:25:45.786Z,3.71
2023-03-18T20:28:22.364Z,3.69
2023-03-18T20:30:57.078Z,3.69
2023-03-18T20:33:32.645Z,3.71
2023-03-18T20:36:06.401Z,3.73
2023-03-18T20:38:40.978Z,3.74
2023-03-18T20:41:22.137Z,3.73
2023-03-18T20:43:55.955Z,3.70
2023-03-18T20:46:29.182Z,3.67
2023-03-18T20:49:04.582Z,3.68
2023-03-18T20:51:41.148Z,3.70
2023-03-18T20:54:27.757Z,3.72
2023-03-18T20:57:02.017Z,3.72
2023-03-18T20:59:35.201Z,3.70
2023-03-18T21:02:27.605Z,3.71
2023-03-18T21:05:02.068Z,3.74
2023-03-18T21:07:35.045Z,3.74
2023-03-18T21:10:09.962Z,3.72
2023-03-18T21:12:43.775Z,3.70
2023-03-18T21:15:23.064Z,3.67
2023-03-18T21:17:56.809Z,3.68
2023-03-18T21:20:32.837Z,3.67
2023-03-18T21:23:05.718Z,3.66
2023-03-18T21:25:38.709Z,3.66
2023-03-18T21:28:17.877Z,3.63
2023-03-18T21:30:55.381Z,3.63
2023-03-18T21:33:35.423Z,3.63
2023-03-18T21:36:10.462Z,3.62
2023-03-18T21:38:43.506Z,3.58
2023-03-18T21:41:28.938Z,3.55
2023-03-18T21:44:03.310Z,3.55
2023-03-18T21:46:36.652Z,3.57
2023-03-18T21:49:11.246Z,3.58
2023-03-18T21:51:44.141Z,3.58
2023-03-18T21:54:20.713Z,3.58
2023-03-18T21:56:54.019Z,3.59
2023-03-18T21:59:27.367Z,3.59
2023-03-18T22:02:01.128Z,3.58
2023-03-18T22:04:35.202Z,3.55
2023-03-18T22:07:12.073Z,3.57
2023-03-18T22:09:46.145Z,3.55
2023-03-18T22:12:28.700Z,3.51
2023-03-18T22:15:02.733Z,3.51
2023-03-18T22:17:38.967Z,3.51
2023-03-18T22:20:13.542Z,3.52
2023-03-18T22:22:48.425Z,3.52
2023-03-18T22:25:34.072Z,3.50
2023-03-18T22:28:07.401Z,3.50
2023-03-18T22:30:43.234Z,3.50
2023-03-18T22:33:26.560Z,3.51
2023-03-18T22:36:00.318Z,3.54
2023-03-18T22:38:35.142Z,3.56
2023-03-18T22:41:20.647Z,3.56
2023-03-18T22:43:53.955Z,3.55
2023-03-18T22:46:28.617Z,3.54
2023-03-18T22:49:03.409Z,3.51
2023-03-18T22:51:39.463Z,3.49
2023-03-18T22:54:19.302Z,3.50
2023-03-18T22:56:53.703Z,3.51
2023-03-18T22:59:27.128Z,3.49
2023-03-18T23:02:00.845Z,3.47
2023-03-18T23:04:34.330Z,3.44
2023-03-18T23:07:09.678Z,3.44
2023-03-18T23:09:56.094Z,3.43
2023-03-18T23:12:19.653Z,3.42
2023-03-18T23:14:53.441Z,3.42
2023-03-18T23:17:29.304Z,3.43
2023-03-18T23:20:03.961Z,3.44
2023-03-18T23:22:37.168Z,3.44
2023-03-18T23:25:16.753Z,3.48
2023-03-18T23:27:49.790Z,3.51
2023-03-18T23:30:22.627Z,3.49
2023-03-18T23:32:57.159Z,3.48
2023-03-18T23:35:30.127Z,3.44
2023-03-18T23:38:02.781Z,3.41
2023-03-18T23:40:35.728Z,3.36
2023-03-18T23:43:09.383Z,3.32
2023-03-18T23:45:43.175Z,3.29
2023-03-18T23:48:16.226Z,3.32
2023-03-18T23:50:49.607Z,3.32
2023-03-18T23:53:23.415Z,3.34
2023-03-18T23:55:56.971Z,3.37
2023-03-18T23:58:29.725Z,3.36
